createdAt,value
2018-06-27T00:00:30.084Z,5.33
2018-06-27T00:02:59.070Z,5.50
2018-06-27T00:05:27.681Z,5.73
2018-06-27T00:07:56.592Z,5.10
2018-06-27T00:10:25.506Z,5.50
2018-06-27T00:12:54.147Z,6.20
2018-06-27T00:15:22.789Z,5.60
2018-06-27T00:17:51.416Z,5.53
2018-06-27T00:20:20.236Z,5.70
2018-06-27T00:22:49.225Z,5.30
2018-06-27T00:25:18.021Z,5.30
2018-06-27T00:27:46.861Z,5.40
2018-06-27T00:30:15.831Z,5.70
2018-06-27T00:32:44.660Z,4.30
2018-06-27T00:35:13.434Z,4.90
2018-06-27T00:37:42.131Z,4.77
2018-06-27T00:40:11.158Z,5.37
2018-06-27T00:42:40.048Z,5.17
2018-06-27T00:45:09.206Z,5.07
2018-06-27T00:47:38.066Z,5.63
2018-06-27T00:50:06.775Z,5.00
2018-06-27T00:52:35.548Z,5.07
2018-06-27T00:55:04.483Z,5.07
2018-06-27T00:57:33.129Z,5.40
2018-06-27T01:00:01.984Z,5.60
2018-06-27T01:02:31.001Z,5.40
2018-06-27T01:04:59.842Z,5.27
2018-06-27T01:07:28.790Z,5.67
2018-06-27T01:09:57.603Z,5.83
2018-06-27T01:12:26.565Z,6.73
2018-06-27T01:14:55.411Z,5.70
2018-06-27T01:17:24.327Z,6.53
2018-06-27T01:19:53.198Z,6.53
2018-06-27T01:22:22.011Z,7.10
2018-06-27T01:24:50.709Z,6.60
2018-06-27T01:27:22.976Z,7.00
2018-06-27T01:29:51.990Z,5.60
2018-06-27T01:32:20.844Z,6.10
2018-06-27T01:34:49.754Z,5.90
2018-06-27T01:37:18.429Z,5.50
2018-06-27T01:39:47.295Z,5.20
2018-06-27T01:42:16.150Z,5.50
2018-06-27T01:44:44.983Z,5.40
2018-06-27T01:47:13.909Z,5.90
2018-06-27T01:49:42.903Z,5.40
2018-06-27T01:52:11.675Z,5.77
2018-06-27T01:54:40.595Z,5.43
2018-06-27T01:57:09.481Z,5.30
2018-06-27T01:59:38.138Z,4.97
2018-06-27T02:02:07.045Z,5.00
2018-06-27T02:04:35.764Z,6.00
2018-06-27T02:07:04.807Z,5.63
2018-06-27T02:09:33.548Z,5.40
2018-06-27T02:12:02.640Z,5.33
2018-06-27T02:14:31.601Z,5.20
2018-06-27T02:17:00.491Z,6.17
2018-06-27T02:19:29.619Z,6.27
2018-06-27T02:21:58.257Z,5.70
2018-06-27T02:24:27.274Z,6.03
2018-06-27T02:26:55.885Z,5.97
2018-06-27T02:29:24.551Z,5.90
2018-06-27T02:31:53.221Z,5.67
2018-06-27T02:34:22.180Z,5.57
2018-06-27T02:36:50.980Z,5.60
2018-06-27T02:39:19.860Z,5.63
2018-06-27T02:41:48.847Z,5.90
2018-06-27T02:44:17.883Z,6.17
2018-06-27T02:46:47.066Z,5.80
2018-06-27T02:49:15.743Z,6.70
2018-06-27T02:51:44.333Z,6.10
2018-06-27T02:54:13.196Z,5.30
2018-06-27T02:56:42.167Z,5.70
2018-06-27T02:59:10.996Z,4.97
2018-06-27T03:01:39.647Z,5.80
2018-06-27T03:04:08.321Z,6.00
2018-06-27T03:06:36.817Z,5.53
2018-06-27T03:09:07.947Z,5.83
2018-06-27T03:11:36.861Z,5.63
2018-06-27T03:14:06.001Z,6.30
2018-06-27T03:16:34.890Z,6.00
2018-06-27T03:19:03.812Z,6.30
2018-06-27T03:21:32.564Z,6.33
2018-06-27T03:24:01.380Z,5.57
2018-06-27T03:26:30.180Z,5.80
2018-06-27T03:28:58.826Z,5.77
2018-06-27T03:31:27.520Z,6.90
2018-06-27T03:33:56.512Z,6.33
2018-06-27T03:36:25.368Z,5.83
2018-06-27T03:38:54.268Z,5.80
2018-06-27T03:41:23.067Z,5.80
2018-06-27T03:43:51.898Z,5.70
2018-06-27T03:46:20.733Z,5.90
2018-06-27T03:48:49.458Z,5.57
2018-06-27T03:51:18.440Z,5.50
2018-06-27T03:53:52.374Z,6.10
2018-06-27T03:56:21.422Z,6.43
2018-06-27T03:58:50.259Z,5.93
2018-06-27T04:01:19.143Z,5.60
2018-06-27T04:03:48.191Z,5.40
2018-06-27T04:06:16.921Z,6.00
2018-06-27T04:08:46.049Z,6.80
2018-06-27T04:11:14.950Z,5.78
2018-06-27T04:13:43.922Z,6.20
2018-06-27T04:16:12.932Z,6.27
2018-06-27T04:18:41.727Z,5.70
2018-06-27T04:21:10.566Z,6.00
2018-06-27T04:23:39.503Z,5.60
2018-06-27T04:26:08.485Z,5.80
2018-06-27T04:28:37.457Z,5.63
2018-06-27T04:31:06.428Z,6.00
2018-06-27T04:33:35.388Z,5.60
2018-06-27T04:36:04.145Z,6.27
2018-06-27T04:38:32.963Z,5.43
2018-06-27T04:41:01.339Z,5.93
2018-06-27T04:43:29.799Z,6.03
2018-06-27T04:45:58.683Z,5.50
2018-06-27T04:48:27.589Z,5.60
2018-06-27T04:50:56.553Z,5.47
2018-06-27T04:53:25.507Z,6.00
2018-06-27T04:55:54.310Z,5.57
2018-06-27T04:58:23.074Z,5.47
2018-06-27T05:00:51.651Z,6.30
2018-06-27T05:03:20.528Z,5.90
2018-06-27T05:05:49.142Z,6.00
2018-06-27T05:08:17.976Z,6.50
2018-06-27T05:10:46.890Z,5.80
2018-06-27T05:13:15.605Z,5.80
2018-06-27T05:15:44.588Z,5.60
2018-06-27T05:18:13.347Z,5.40
2018-06-27T05:20:42.071Z,5.63
2018-06-27T05:23:10.911Z,5.27
2018-06-27T05:25:39.725Z,5.57
2018-06-27T05:28:08.646Z,6.17
2018-06-27T05:30:37.630Z,5.17
2018-06-27T05:33:07.007Z,6.00
2018-06-27T05:35:35.891Z,5.40
2018-06-27T05:38:04.545Z,5.87
2018-06-27T05:40:33.381Z,5.13
2018-06-27T05:43:02.203Z,5.23
2018-06-27T05:45:31.026Z,5.60
2018-06-27T05:47:59.854Z,5.67
2018-06-27T05:50:28.649Z,6.40
2018-06-27T05:52:57.255Z,5.17
2018-06-27T05:55:26.315Z,5.50
2018-06-27T05:57:55.248Z,4.90
2018-06-27T06:00:24.242Z,5.20
2018-06-27T06:02:53.195Z,4.80
2018-06-27T06:05:21.870Z,4.90
2018-06-27T06:07:50.887Z,5.13
2018-06-27T06:10:19.925Z,4.57
2018-06-27T06:12:49.311Z,5.37
2018-06-27T06:15:18.197Z,4.37
2018-06-27T06:17:46.814Z,4.80
2018-06-27T06:20:15.562Z,5.03
2018-06-27T06:22:44.551Z,4.80
2018-06-27T06:25:13.500Z,5.00
2018-06-27T06:27:42.443Z,4.50
2018-06-27T06:30:11.331Z,4.00
2018-06-27T06:32:40.328Z,4.20
2018-06-27T06:35:08.963Z,4.40
2018-06-27T06:37:37.942Z,4.17
2018-06-27T06:40:06.823Z,4.03
2018-06-27T06:42:35.682Z,3.90
2018-06-27T06:45:04.528Z,4.10
2018-06-27T06:47:33.912Z,4.13
2018-06-27T06:50:02.888Z,3.80
2018-06-27T06:52:31.648Z,3.77
2018-06-27T06:55:00.606Z,4.13
2018-06-27T06:57:29.434Z,3.53
2018-06-27T06:59:58.270Z,4.00
2018-06-27T07:02:27.657Z,4.10
2018-06-27T07:04:57.576Z,4.07
2018-06-27T07:07:27.068Z,4.30
2018-06-27T07:09:57.045Z,3.63
2018-06-27T07:12:26.668Z,4.00
2018-06-27T07:14:56.199Z,4.20
2018-06-27T07:17:25.040Z,4.07
2018-06-27T07:19:53.985Z,4.37
2018-06-27T07:22:22.449Z,4.27
2018-06-27T07:24:51.479Z,3.83
2018-06-27T07:27:20.475Z,3.73
2018-06-27T07:29:49.517Z,3.57
2018-06-27T07:32:18.263Z,3.70
2018-06-27T07:34:47.015Z,4.10
2018-06-27T07:37:16.582Z,3.23
2018-06-27T07:39:46.439Z,3.33
2018-06-27T07:42:15.707Z,3.87
2018-06-27T07:44:44.401Z,4.03
2018-06-27T07:47:13.224Z,3.60
2018-06-27T07:49:41.931Z,3.40
2018-06-27T07:52:10.318Z,3.40
2018-06-27T07:54:42.179Z,3.80
2018-06-27T07:57:14.735Z,3.30
2018-06-27T07:59:44.492Z,3.40
2018-06-27T08:02:13.560Z,3.63
2018-06-27T08:04:42.319Z,2.90
2018-06-27T08:07:11.396Z,3.57
2018-06-27T08:09:40.174Z,3.93
2018-06-27T08:12:09.119Z,4.00
2018-06-27T08:14:38.083Z,3.70
2018-06-27T08:17:06.797Z,3.90
2018-06-27T08:19:35.682Z,3.63
2018-06-27T08:22:04.539Z,3.83
2018-06-27T08:24:33.423Z,3.50
2018-06-27T08:27:02.278Z,3.30
2018-06-27T08:29:31.206Z,2.63
2018-06-27T08:32:00.689Z,3.03
2018-06-27T08:34:29.314Z,2.90
2018-06-27T08:36:58.139Z,2.53
2018-06-27T08:39:27.115Z,2.70
2018-06-27T08:41:55.581Z,2.60
2018-06-27T08:44:24.452Z,2.53
2018-06-27T08:46:53.219Z,2.90
2018-06-27T08:49:22.085Z,2.33
2018-06-27T08:51:50.935Z,2.47
2018-06-27T08:54:19.844Z,2.83
2018-06-27T08:56:48.803Z,2.63
2018-06-27T08:59:17.655Z,2.97
2018-06-27T09:01:46.523Z,2.90
2018-06-27T09:04:15.557Z,2.83
2018-06-27T09:06:44.291Z,3.10
2018-06-27T09:09:13.514Z,3.00
2018-06-27T09:11:42.794Z,3.20
2018-06-27T09:14:11.386Z,2.60
2018-06-27T09:16:40.053Z,2.77
2018-06-27T09:19:08.869Z,2.50
2018-06-27T09:21:37.893Z,2.90
2018-06-27T09:24:06.907Z,2.77
2018-06-27T09:26:35.935Z,2.73
2018-06-27T09:29:04.968Z,3.10
2018-06-27T09:31:34.062Z,2.50
2018-06-27T09:34:03.059Z,2.40
2018-06-27T09:36:31.668Z,2.87
2018-06-27T09:39:00.291Z,2.20
2018-06-27T09:41:29.289Z,2.40
2018-06-27T09:43:58.070Z,2.53
2018-06-27T09:46:27.015Z,3.00
2018-06-27T09:48:55.798Z,3.13
2018-06-27T09:51:24.671Z,2.77
2018-06-27T09:53:53.411Z,2.90
2018-06-27T09:56:22.637Z,3.20
2018-06-27T09:58:51.670Z,3.33
2018-06-27T10:01:20.544Z,3.23
2018-06-27T10:03:49.554Z,3.00
2018-06-27T10:06:18.197Z,3.10
2018-06-27T10:08:47.018Z,3.00
2018-06-27T10:11:15.981Z,2.70
2018-06-27T10:13:44.946Z,2.67
2018-06-27T10:16:13.874Z,2.50
2018-06-27T10:18:42.656Z,3.20
2018-06-27T10:21:11.567Z,3.27
2018-06-27T10:23:40.377Z,3.40
2018-06-27T10:26:09.249Z,2.63
2018-06-27T10:28:38.646Z,3.33
2018-06-27T10:31:07.751Z,3.57
2018-06-27T10:33:36.558Z,2.70
2018-06-27T10:36:05.291Z,3.17
2018-06-27T10:38:34.231Z,2.77
2018-06-27T10:41:03.429Z,3.30
2018-06-27T10:43:32.287Z,2.77
2018-06-27T10:46:01.109Z,3.23
2018-06-27T10:48:30.052Z,3.07
2018-06-27T10:50:58.672Z,2.93
2018-06-27T10:53:27.289Z,2.87
2018-06-27T10:55:55.904Z,3.00
2018-06-27T10:58:24.755Z,2.40
2018-06-27T11:00:53.435Z,2.80
2018-06-27T11:03:22.107Z,2.90
2018-06-27T11:05:50.942Z,3.30
2018-06-27T11:08:19.760Z,2.93
2018-06-27T11:10:48.859Z,2.90
2018-06-27T11:13:17.930Z,2.80
2018-06-27T11:15:47.509Z,3.40
2018-06-27T11:18:16.384Z,3.17
2018-06-27T11:20:45.665Z,3.83
2018-06-27T11:23:14.591Z,4.17
2018-06-27T11:25:43.373Z,3.60
2018-06-27T11:28:12.175Z,3.40
2018-06-27T11:30:41.133Z,3.55
2018-06-27T11:33:09.909Z,3.30
2018-06-27T11:35:38.606Z,3.33
2018-06-27T11:38:07.402Z,3.53
2018-06-27T11:40:36.481Z,4.20
2018-06-27T11:43:05.300Z,3.07
2018-06-27T11:45:33.974Z,2.40
2018-06-27T11:48:03.012Z,2.30
2018-06-27T11:50:31.757Z,2.50
2018-06-27T11:53:00.777Z,2.27
2018-06-27T11:55:29.413Z,2.17
2018-06-27T11:57:58.461Z,1.93
2018-06-27T12:00:27.580Z,2.07
2018-06-27T12:02:56.655Z,1.80
2018-06-27T12:05:25.307Z,2.23
2018-06-27T12:07:54.210Z,2.37
2018-06-27T12:10:23.102Z,1.80
2018-06-27T12:12:52.049Z,2.03
2018-06-27T12:15:20.997Z,2.10
2018-06-27T12:17:49.883Z,1.70
2018-06-27T12:20:18.532Z,1.83
2018-06-27T12:22:47.169Z,2.00
2018-06-27T12:25:15.931Z,2.17
2018-06-27T12:27:44.668Z,1.60
2018-06-27T12:30:20.033Z,1.60
2018-06-27T12:32:49.235Z,2.57
2018-06-27T12:35:19.032Z,2.17
2018-06-27T12:37:47.755Z,1.60
2018-06-27T12:40:16.685Z,1.67
2018-06-27T12:42:45.719Z,1.70
2018-06-27T12:45:14.482Z,1.90
2018-06-27T12:47:43.675Z,2.10
2018-06-27T12:50:12.590Z,1.70
2018-06-27T12:52:41.351Z,1.90
2018-06-27T12:55:12.080Z,2.30
2018-06-27T12:57:41.235Z,2.20
2018-06-27T13:00:10.771Z,1.90
2018-06-27T13:02:39.626Z,1.70
2018-06-27T13:05:09.615Z,1.92
2018-06-27T13:07:38.763Z,2.13
2018-06-27T13:10:08.713Z,2.67
2018-06-27T13:12:37.882Z,2.30
2018-06-27T13:15:07.321Z,1.80
2018-06-27T13:17:37.090Z,1.90
2018-06-27T13:20:06.539Z,1.77
2018-06-27T13:22:35.661Z,1.40
2018-06-27T13:25:04.381Z,1.40
2018-06-27T13:27:33.422Z,1.30
2018-06-27T13:30:02.068Z,1.30
2018-06-27T13:32:30.692Z,1.40
2018-06-27T13:34:59.441Z,1.57
2018-06-27T13:37:28.253Z,1.40
2018-06-27T13:39:57.103Z,1.77
2018-06-27T13:42:26.136Z,1.90
2018-06-27T13:44:55.028Z,2.00
2018-06-27T13:47:23.467Z,2.17
2018-06-27T13:49:52.419Z,2.00
2018-06-27T13:52:21.279Z,2.50
2018-06-27T13:54:55.114Z,2.30
2018-06-27T13:57:24.588Z,2.50
2018-06-27T13:59:53.578Z,2.20
2018-06-27T14:02:22.380Z,2.43
2018-06-27T14:04:51.584Z,2.60
2018-06-27T14:07:20.515Z,2.10
2018-06-27T14:09:49.467Z,2.33
2018-06-27T14:12:18.349Z,1.40
2018-06-27T14:14:47.176Z,1.60
2018-06-27T14:17:15.808Z,1.50
2018-06-27T14:19:44.631Z,2.00
2018-06-27T14:22:13.722Z,1.57
2018-06-27T14:24:42.692Z,2.10
2018-06-27T14:27:11.706Z,1.80
2018-06-27T14:29:40.655Z,2.00
2018-06-27T14:32:09.600Z,2.50
2018-06-27T14:34:38.346Z,2.30
2018-06-27T14:37:07.481Z,1.60
2018-06-27T14:39:36.497Z,1.70
2018-06-27T14:42:05.363Z,1.40
2018-06-27T14:44:34.180Z,2.10
2018-06-27T14:47:03.180Z,2.00
2018-06-27T14:49:32.257Z,1.80
2018-06-27T14:52:01.141Z,2.20
2018-06-27T14:54:29.810Z,2.10
2018-06-27T14:56:58.746Z,2.07
2018-06-27T14:59:27.521Z,2.00
2018-06-27T15:01:56.174Z,1.53
2018-06-27T15:04:24.841Z,1.70
2018-06-27T15:06:53.892Z,1.60
2018-06-27T15:09:22.524Z,1.73
2018-06-27T15:11:51.456Z,1.40
2018-06-27T15:14:20.410Z,1.30
2018-06-27T15:16:49.436Z,1.40
2018-06-27T15:19:18.309Z,1.50
2018-06-27T15:21:47.142Z,1.20
2018-06-27T15:24:15.863Z,1.30
2018-06-27T15:26:44.824Z,1.50
2018-06-27T15:29:13.622Z,1.40
2018-06-27T15:31:42.801Z,1.53
2018-06-27T15:34:13.144Z,1.90
2018-06-27T15:36:41.795Z,1.40
2018-06-27T15:39:11.535Z,1.50
2018-06-27T15:41:40.345Z,2.00
2018-06-27T15:44:09.324Z,2.00
2018-06-27T15:46:38.102Z,2.00
2018-06-27T15:49:09.029Z,2.37
2018-06-27T15:51:38.146Z,2.20
2018-06-27T15:54:06.851Z,2.00
2018-06-27T15:56:35.758Z,2.37
2018-06-27T15:59:04.599Z,2.13
2018-06-27T16:01:33.467Z,2.10
2018-06-27T16:04:02.519Z,1.80
2018-06-27T16:06:31.316Z,2.10
2018-06-27T16:09:00.109Z,2.00
2018-06-27T16:11:28.868Z,2.70
2018-06-27T16:13:57.849Z,2.10
2018-06-27T16:16:26.759Z,2.30
2018-06-27T16:18:55.663Z,1.97
2018-06-27T16:21:24.506Z,2.30
2018-06-27T16:23:53.532Z,2.23
2018-06-27T16:26:22.406Z,2.20
2018-06-27T16:28:51.374Z,2.27
2018-06-27T16:31:20.378Z,2.50
2018-06-27T16:33:49.316Z,2.27
2018-06-27T16:36:18.258Z,2.40
2018-06-27T16:38:47.267Z,2.00
2018-06-27T16:41:16.215Z,2.27
2018-06-27T16:43:45.159Z,2.00
2018-06-27T16:46:14.551Z,2.00
2018-06-27T16:48:43.521Z,2.33
2018-06-27T16:51:12.538Z,2.10
2018-06-27T16:53:41.625Z,2.40
2018-06-27T16:56:10.621Z,2.03
2018-06-27T16:58:39.252Z,2.40
2018-06-27T17:01:08.306Z,2.40
2018-06-27T17:03:37.383Z,1.90
2018-06-27T17:06:06.335Z,1.90
2018-06-27T17:08:35.079Z,2.30
2018-06-27T17:11:04.112Z,2.07
2018-06-27T17:13:32.724Z,2.30
2018-06-27T17:16:01.732Z,2.40
2018-06-27T17:18:30.859Z,1.90
2018-06-27T17:20:59.967Z,2.60
2018-06-27T17:23:29.072Z,2.10
2018-06-27T17:25:58.812Z,2.10
2018-06-27T17:28:27.654Z,2.30
2018-06-27T17:30:56.751Z,1.90
2018-06-27T17:33:25.710Z,2.10
2018-06-27T17:35:54.692Z,2.10
2018-06-27T17:38:23.835Z,1.83
2018-06-27T17:40:52.486Z,2.00
2018-06-27T17:43:21.270Z,1.70
2018-06-27T17:45:50.515Z,1.60
2018-06-27T17:48:19.413Z,2.00
2018-06-27T17:50:48.237Z,1.67
2018-06-27T17:53:16.927Z,1.90
2018-06-27T17:55:45.794Z,1.57
2018-06-27T17:58:14.591Z,1.67
2018-06-27T18:00:43.442Z,1.60
2018-06-27T18:03:12.346Z,1.60
2018-06-27T18:05:41.179Z,1.40
2018-06-27T18:08:09.920Z,1.43
2018-06-27T18:10:39.515Z,1.47
2018-06-27T18:13:08.844Z,1.70
2018-06-27T18:15:37.735Z,1.30
2018-06-27T18:18:06.808Z,1.63
2018-06-27T18:20:35.921Z,1.70
2018-06-27T18:23:04.852Z,1.20
2018-06-27T18:25:33.779Z,1.40
2018-06-27T18:28:02.476Z,1.60
2018-06-27T18:30:31.126Z,1.67
2018-06-27T18:32:59.779Z,1.50
2018-06-27T18:35:28.450Z,1.60
2018-06-27T18:37:57.241Z,1.70
2018-06-27T18:40:26.251Z,1.83
2018-06-27T18:42:55.134Z,1.40
2018-06-27T18:45:24.156Z,2.07
2018-06-27T18:47:53.076Z,1.47
2018-06-27T18:50:22.074Z,1.60
2018-06-27T18:52:50.846Z,1.63
2018-06-27T18:55:19.831Z,1.60
2018-06-27T18:57:48.472Z,1.50
2018-06-27T19:00:17.961Z,1.77
2018-06-27T19:02:47.039Z,1.70
2018-06-27T19:05:15.777Z,1.47
2018-06-27T19:07:44.851Z,1.53
2018-06-27T19:10:13.515Z,1.80
2018-06-27T19:12:42.381Z,1.70
2018-06-27T19:15:11.278Z,1.57
2018-06-27T19:17:40.148Z,1.63
2018-06-27T19:20:08.939Z,1.50
2018-06-27T19:22:40.153Z,2.17
2018-06-27T19:25:09.127Z,1.80
2018-06-27T19:27:38.047Z,1.33
2018-06-27T19:30:07.331Z,1.40
2018-06-27T19:32:36.278Z,1.30
2018-06-27T19:35:05.313Z,1.53
2018-06-27T19:37:33.991Z,1.50
2018-06-27T19:40:03.343Z,1.90
2018-06-27T19:42:32.197Z,1.67
2018-06-27T19:45:01.126Z,1.50
2018-06-27T19:47:30.257Z,1.40
2018-06-27T19:49:59.080Z,1.40
2018-06-27T19:52:28.132Z,1.60
2018-06-27T19:54:57.355Z,1.70
2018-06-27T19:57:26.339Z,1.53
2018-06-27T19:59:55.038Z,1.40
2018-06-27T20:02:23.959Z,1.77
2018-06-27T20:04:52.850Z,1.67
2018-06-27T20:07:21.641Z,1.60
2018-06-27T20:09:50.206Z,1.50
2018-06-27T20:12:19.244Z,1.53
2018-06-27T20:14:48.090Z,1.53
2018-06-27T20:17:17.019Z,1.60
2018-06-27T20:19:46.208Z,1.97
2018-06-27T20:22:15.209Z,1.90
2018-06-27T20:24:44.190Z,1.50
2018-06-27T20:27:12.978Z,2.00
2018-06-27T20:29:41.347Z,1.63
2018-06-27T20:32:10.297Z,1.83
2018-06-27T20:34:39.331Z,1.67
2018-06-27T20:37:08.160Z,1.77
2018-06-27T20:39:36.939Z,1.90
2018-06-27T20:42:06.089Z,1.73
2018-06-27T20:44:35.049Z,1.80
2018-06-27T20:47:04.044Z,2.17
2018-06-27T20:49:32.810Z,1.87
2018-06-27T20:52:01.554Z,1.87
2018-06-27T20:54:30.203Z,1.90
2018-06-27T20:56:59.042Z,2.37
2018-06-27T20:59:27.932Z,2.03
2018-06-27T21:01:56.842Z,2.00
2018-06-27T21:04:25.862Z,1.70
2018-06-27T21:06:54.688Z,1.90
2018-06-27T21:09:23.329Z,2.17
2018-06-27T21:11:52.198Z,1.90
2018-06-27T21:14:21.118Z,1.80
2018-06-27T21:16:49.933Z,1.87
2018-06-27T21:19:18.771Z,2.30
2018-06-27T21:21:47.509Z,1.97
2018-06-27T21:24:16.263Z,1.80
2018-06-27T21:26:44.957Z,2.00
2018-06-27T21:29:13.804Z,2.10
2018-06-27T21:31:42.642Z,1.90
2018-06-27T21:34:11.496Z,2.30
2018-06-27T21:36:40.467Z,2.03
2018-06-27T21:39:09.909Z,1.90
2018-06-27T21:41:38.768Z,2.37
2018-06-27T21:44:07.460Z,2.10
2018-06-27T21:46:36.523Z,2.17
2018-06-27T21:49:05.387Z,2.10
2018-06-27T21:51:34.153Z,2.20
2018-06-27T21:54:03.201Z,2.30
2018-06-27T21:56:32.111Z,2.17
2018-06-27T21:59:00.951Z,2.17
2018-06-27T22:01:29.901Z,2.13
2018-06-27T22:03:58.811Z,1.87
2018-06-27T22:06:27.600Z,2.03
2018-06-27T22:08:56.413Z,2.00
2018-06-27T22:11:25.284Z,1.90
2018-06-27T22:13:54.232Z,2.10
2018-06-27T22:16:23.122Z,2.30
2018-06-27T22:18:51.780Z,2.30
2018-06-27T22:21:20.653Z,2.10
2018-06-27T22:23:49.350Z,2.17
2018-06-27T22:26:18.224Z,2.13
2018-06-27T22:28:47.044Z,2.17
2018-06-27T22:31:16.036Z,2.53
2018-06-27T22:33:44.902Z,2.20
2018-06-27T22:36:14.017Z,2.40
2018-06-27T22:38:42.915Z,2.50
2018-06-27T22:41:11.855Z,2.47
2018-06-27T22:43:40.658Z,2.40
2018-06-27T22:46:09.549Z,2.13
2018-06-27T22:48:38.420Z,2.27
2018-06-27T22:51:07.310Z,2.40
2018-06-27T22:53:36.018Z,2.43
2018-06-27T22:56:05.519Z,2.53
2018-06-27T22:58:34.334Z,2.50
2018-06-27T23:01:03.068Z,2.17
2018-06-27T23:03:32.120Z,2.40
2018-06-27T23:06:01.024Z,2.60
2018-06-27T23:08:29.950Z,2.40
2018-06-27T23:10:58.840Z,3.00
2018-06-27T23:13:27.710Z,2.40
2018-06-27T23:15:56.490Z,2.70
2018-06-27T23:18:25.248Z,2.40
2018-06-27T23:20:54.172Z,2.57
2018-06-27T23:23:23.154Z,2.50
2018-06-27T23:25:51.918Z,2.50
2018-06-27T23:28:20.735Z,2.37
2018-06-27T23:30:49.498Z,3.00
2018-06-27T23:33:18.618Z,2.70
2018-06-27T23:35:47.526Z,2.40
2018-06-27T23:38:16.391Z,2.70
2018-06-27T23:40:45.196Z,2.40
2018-06-27T23:43:13.880Z,2.70
2018-06-27T23:45:42.742Z,2.97
2018-06-27T23:48:11.691Z,2.80
2018-06-27T23:50:40.432Z,2.30
2018-06-27T23:53:09.208Z,2.90
2018-06-27T23:55:38.185Z,2.83
2018-06-27T23:58:07.259Z,2.73
